createdAt,value
2017-06-19T13:02:46.834Z,0.00
2017-06-19T13:06:39.508Z,11.97
2017-06-19T13:09:07.871Z,12.19
2017-06-19T13:11:36.233Z,12.34
2017-06-19T13:14:04.585Z,10.92
2017-06-19T13:16:32.964Z,11.06
2017-06-19T13:19:01.385Z,10.67
2017-06-19T13:21:29.721Z,10.55
2017-06-19T13:23:58.063Z,11.33
2017-06-19T13:26:26.522Z,14.40
2017-06-19T13:28:54.859Z,17.08
2017-06-19T13:31:23.237Z,20.35
2017-06-19T13:33:51.951Z,22.30
2017-06-19T13:36:20.371Z,22.37
2017-06-19T13:38:48.747Z,24.87
2017-06-19T13:41:17.084Z,25.07
2017-06-19T13:43:45.426Z,24.10
2017-06-19T13:46:13.775Z,24.57
2017-06-19T13:48:42.121Z,24.65
2017-06-19T13:51:10.505Z,25.68
2017-06-19T13:53:38.843Z,26.92
2017-06-19T13:56:07.184Z,24.57
2017-06-19T13:58:35.527Z,25.34
2017-06-19T14:01:03.912Z,26.15
2017-06-19T15:11:12.237Z,24.40
2017-06-19T15:15:06.154Z,21.80
2017-06-19T15:17:34.493Z,20.67
2017-06-19T15:20:02.874Z,19.85
2017-06-19T15:22:37.167Z,19.32
2017-06-19T15:25:05.563Z,18.97
2017-06-19T15:27:33.872Z,18.63
2017-06-19T15:30:02.306Z,18.39
2017-06-19T15:32:30.643Z,18.24
2017-06-19T15:34:59.037Z,18.10
2017-06-19T15:37:27.370Z,18.00
2017-06-19T15:39:55.716Z,17.93
2017-06-19T15:42:24.055Z,17.90
2017-06-19T15:44:52.414Z,17.96
2017-06-19T15:47:20.752Z,17.94
2017-06-19T15:49:49.092Z,17.93
2017-06-19T15:52:17.425Z,18.01
2017-06-19T15:54:45.793Z,18.12
2017-06-19T15:57:14.133Z,18.14
2017-06-19T15:59:42.515Z,18.22
2017-06-19T16:02:10.847Z,18.17
2017-06-19T16:04:39.203Z,18.10
2017-06-19T16:07:07.603Z,18.15
2017-06-19T16:09:35.941Z,18.22
2017-06-19T16:12:04.259Z,18.28
2017-06-19T16:14:32.638Z,18.35
2017-06-19T16:17:00.976Z,18.43
2017-06-19T16:19:29.326Z,18.47
2017-06-19T16:21:57.668Z,18.57
2017-06-19T16:24:26.062Z,18.64
2017-06-19T16:26:54.646Z,18.73
2017-06-19T16:29:23.032Z,18.83
2017-06-19T16:31:51.482Z,18.90
2017-06-19T16:34:19.809Z,19.01
2017-06-19T16:36:48.168Z,19.13
2017-06-19T16:39:16.509Z,19.24
2017-06-19T16:41:44.841Z,19.37
2017-06-19T16:44:13.178Z,19.43
2017-06-19T16:46:41.507Z,19.52
2017-06-19T16:49:09.844Z,19.59
2017-06-19T16:51:38.205Z,19.72
2017-06-19T16:54:06.547Z,19.82
2017-06-19T16:56:34.872Z,19.95
2017-06-19T16:59:03.217Z,20.07
2017-06-19T17:01:31.537Z,20.17
2017-06-19T17:03:59.891Z,20.31
2017-06-19T17:06:28.237Z,20.41
2017-06-19T17:08:56.612Z,20.53
2017-06-19T17:11:24.978Z,20.66
2017-06-19T17:13:53.312Z,20.80
2017-06-19T17:16:21.685Z,20.95
2017-06-19T17:18:50.042Z,21.10
2017-06-19T17:21:18.450Z,21.21
2017-06-19T17:23:46.781Z,21.34
2017-06-19T17:26:15.111Z,21.50
2017-06-19T17:28:43.481Z,21.62
2017-06-19T17:31:11.851Z,21.81
2017-06-19T17:33:40.181Z,21.94
2017-06-19T17:36:08.527Z,22.11
2017-06-19T17:38:36.914Z,22.28
2017-06-19T17:41:05.243Z,22.43
2017-06-19T17:43:33.575Z,22.60
2017-06-19T17:46:01.935Z,22.80
2017-06-19T17:48:30.286Z,22.94
2017-06-19T17:50:58.641Z,23.08
2017-06-19T17:53:26.998Z,23.27
2017-06-19T17:55:55.345Z,23.44
2017-06-19T17:58:23.705Z,23.62
2017-06-19T18:00:52.070Z,23.79
2017-06-19T18:03:20.401Z,24.00
2017-06-19T18:05:49.563Z,24.20
2017-06-19T18:08:17.951Z,24.36
2017-06-19T18:10:46.263Z,24.58
2017-06-19T18:13:14.593Z,24.79
2017-06-19T18:15:42.930Z,25.00
2017-06-19T18:18:11.265Z,25.24
2017-06-19T18:20:39.629Z,25.45
2017-06-19T18:23:07.976Z,25.74
2017-06-19T18:25:36.313Z,25.96
2017-06-19T18:28:04.666Z,26.22
2017-06-19T18:30:33.022Z,26.60
2017-06-19T18:33:02.102Z,27.16
2017-06-19T18:35:30.459Z,27.72
2017-06-19T18:37:58.854Z,28.34
2017-06-19T18:40:27.197Z,28.89
2017-06-19T18:42:55.532Z,29.42
2017-06-19T18:45:23.930Z,29.87
2017-06-19T18:47:52.290Z,30.25
2017-06-19T18:50:20.657Z,30.61
2017-06-19T18:52:49.001Z,30.93
2017-06-19T18:55:17.463Z,31.21
2017-06-19T18:57:45.793Z,31.47
2017-06-19T19:00:14.153Z,31.70
2017-06-19T19:02:42.520Z,31.94
2017-06-19T19:05:10.945Z,32.14
2017-06-19T19:07:39.318Z,32.37
2017-06-19T19:10:07.690Z,32.58
2017-06-19T19:12:36.126Z,32.78
2017-06-19T19:15:04.517Z,32.94
2017-06-19T19:17:32.861Z,33.12
2017-06-19T19:20:01.455Z,33.29
2017-06-19T19:22:29.838Z,33.44
2017-06-19T19:24:58.234Z,33.57
2017-06-19T19:27:26.598Z,33.71
2017-06-19T19:29:54.924Z,33.87
2017-06-19T19:32:23.254Z,33.99
2017-06-19T19:34:51.609Z,34.11
2017-06-19T19:37:19.946Z,34.22
2017-06-19T19:39:48.308Z,34.33
2017-06-19T19:42:16.653Z,34.46
2017-06-19T19:44:44.989Z,34.57
2017-06-19T19:47:13.393Z,34.67
2017-06-19T19:49:41.715Z,34.75
2017-06-19T19:52:10.093Z,34.65
2017-06-19T19:54:38.681Z,36.36
2017-06-19T19:57:07.028Z,38.24
2017-06-19T19:59:35.414Z,39.21
2017-06-19T20:02:03.832Z,39.43
2017-06-19T20:04:32.305Z,38.31
2017-06-19T20:07:00.700Z,43.24
2017-06-19T20:09:29.031Z,42.38
2017-06-19T20:11:57.581Z,44.76
2017-06-19T20:14:25.983Z,46.93
2017-06-19T20:16:56.520Z,48.80
2017-06-19T20:19:27.397Z,51.22
2017-06-19T20:21:56.571Z,52.49
2017-06-19T20:24:25.321Z,52.93
2017-06-19T20:26:53.705Z,52.12
2017-06-19T20:29:22.094Z,51.65
2017-06-19T20:31:50.431Z,52.07
2017-06-19T20:34:18.752Z,52.59
2017-06-19T20:36:47.128Z,52.31
2017-06-19T20:39:15.468Z,52.59
2017-06-19T20:41:43.837Z,52.77
2017-06-19T20:44:12.188Z,53.25
2017-06-19T20:46:40.561Z,53.50
2017-06-19T20:49:09.089Z,53.83
2017-06-19T20:51:37.430Z,53.99
2017-06-19T20:54:05.755Z,55.34
2017-06-19T20:56:34.494Z,56.09
2017-06-19T20:59:02.835Z,56.83
2017-06-19T21:01:31.230Z,59.34
2017-06-19T21:03:59.576Z,60.63
2017-06-19T21:06:27.941Z,61.30
2017-06-19T21:08:56.290Z,61.62
2017-06-19T21:11:24.717Z,61.99
2017-06-19T21:13:53.087Z,62.48
2017-06-19T21:16:21.454Z,62.91
2017-06-19T21:18:49.778Z,63.29
2017-06-19T21:21:18.105Z,63.91
2017-06-19T21:23:46.431Z,64.28
2017-06-19T21:26:14.772Z,64.52
2017-06-19T21:28:43.777Z,64.49
2017-06-19T21:31:12.825Z,64.96
2017-06-19T21:33:41.174Z,65.10
2017-06-19T21:36:09.611Z,65.54
2017-06-19T21:38:37.961Z,66.12
2017-06-19T21:41:06.297Z,66.15
2017-06-19T21:43:34.638Z,66.19
2017-06-19T21:46:03.015Z,66.38
2017-06-19T21:48:31.361Z,66.53
2017-06-19T21:50:59.708Z,66.79
2017-06-19T21:53:28.088Z,66.82
2017-06-19T21:55:56.417Z,67.08
2017-06-19T21:58:24.746Z,67.13
2017-06-19T22:00:53.085Z,67.19
2017-06-19T22:03:21.425Z,67.54
2017-06-19T22:05:49.777Z,68.10
2017-06-19T22:08:18.117Z,68.36
2017-06-19T22:10:46.501Z,68.84
2017-06-19T22:13:14.935Z,68.86
2017-06-19T22:15:43.317Z,68.68
2017-06-19T22:18:11.678Z,68.86
2017-06-19T22:20:41.083Z,68.78
2017-06-19T22:23:09.601Z,68.64
2017-06-19T22:25:37.968Z,68.73
2017-06-19T22:28:06.301Z,69.18
2017-06-19T22:30:34.635Z,69.23
2017-06-19T22:33:03.005Z,69.18
2017-06-19T22:35:31.377Z,69.11
2017-06-19T22:38:00.787Z,69.32
2017-06-19T22:40:29.192Z,69.24
2017-06-19T22:42:57.529Z,69.00
2017-06-19T22:45:26.852Z,69.24
2017-06-19T22:47:55.209Z,69.19
2017-06-19T22:50:23.595Z,69.32
2017-06-19T22:52:51.921Z,69.22
2017-06-19T22:55:20.319Z,69.63
2017-06-19T22:57:48.651Z,69.54
2017-06-19T23:00:17.088Z,69.82
2017-06-19T23:02:45.449Z,70.11
2017-06-19T23:05:13.815Z,70.35
2017-06-19T23:07:42.185Z,70.53
2017-06-19T23:10:10.586Z,70.71
2017-06-19T23:12:38.928Z,70.86
2017-06-19T23:15:07.299Z,70.97
2017-06-19T23:17:35.669Z,71.34
2017-06-19T23:20:04.047Z,71.86
2017-06-19T23:22:32.476Z,72.57
2017-06-19T23:25:00.860Z,72.96
2017-06-19T23:27:29.177Z,73.02
2017-06-19T23:29:57.580Z,73.14
2017-06-19T23:32:25.902Z,73.15
2017-06-19T23:34:54.255Z,73.16
2017-06-19T23:37:22.605Z,72.82
2017-06-19T23:39:50.932Z,73.01
2017-06-19T23:42:19.275Z,72.82
2017-06-19T23:44:47.613Z,73.01
2017-06-19T23:47:15.980Z,73.32
2017-06-19T23:49:44.313Z,73.63
2017-06-19T23:52:12.657Z,73.84
2017-06-19T23:54:41.055Z,74.07
2017-06-19T23:57:09.409Z,74.12
2017-06-19T23:59:37.744Z,73.91
